sensor_id;sensor_type;location;lat;lon;timestamp;P1;durP1;ratioP1;P2;durP2;ratioP2
545;SDS011;259;53.304;9.816;2023-05-14T00:01:32;4.10;;;3.80;;
545;SDS011;259;53.304;9.816;2023-05-14T00:03:59;4.00;;;3.70;;
545;SDS011;259;53.304;9.816;2023-05-14T00:06:24;3.77;;;3.47;;
545;SDS011;259;53.304;9.816;2023-05-14T00:08:50;4.00;;;3.80;;
545;SDS011;259;53.304;9.816;2023-05-14T00:11:15;3.90;;;3.70;;
545;SDS011;259;53.304;9.816;2023-05-14T00:13:41;3.63;;;3.43;;
545;SDS011;259;53.304;9.816;2023-05-14T00:16:07;3.17;;;2.97;;
545;SDS011;259;53.304;9.816;2023-05-14T00:18:33;3.63;;;3.43;;
545;SDS011;259;53.304;9.816;2023-05-14T00:20:58;3.30;;;3.10;;
545;SDS011;259;53.304;9.816;2023-05-14T00:23:24;3.20;;;3.03;;
545;SDS011;259;53.304;9.816;2023-05-14T00:25:50;3.70;;;3.50;;
545;SDS011;259;53.304;9.816;2023-05-14T00:28:15;3.00;;;2.90;;
545;SDS011;259;53.304;9.816;2023-05-14T00:30:41;3.60;;;3.40;;
545;SDS011;259;53.304;9.816;2023-05-14T00:33:07;3.60;;;3.40;;
545;SDS011;259;53.304;9.816;2023-05-14T00:35:33;3.20;;;3.00;;
545;SDS011;259;53.304;9.816;2023-05-14T00:37:59;3.70;;;3.50;;
545;SDS011;259;53.304;9.816;2023-05-14T00:40:26;3.50;;;3.30;;
545;SDS011;259;53.304;9.816;2023-05-14T00:42:52;3.63;;;3.43;;
545;SDS011;259;53.304;9.816;2023-05-14T00:45:19;3.60;;;3.40;;
545;SDS011;259;53.304;9.816;2023-05-14T00:47:45;4.30;;;3.90;;
545;SDS011;259;53.304;9.816;2023-05-14T00:50:12;4.07;;;3.87;;
545;SDS011;259;53.304;9.816;2023-05-14T00:52:39;3.37;;;3.17;;
545;SDS011;259;53.304;9.816;2023-05-14T00:55:05;3.77;;;3.57;;
545;SDS011;259;53.304;9.816;2023-05-14T00:57:35;2.73;;;2.63;;
545;SDS011;259;53.304;9.816;2023-05-14T01:00:02;3.77;;;3.57;;
545;SDS011;259;53.304;9.816;2023-05-14T01:02:28;3.50;;;3.30;;
545;SDS011;259;53.304;9.816;2023-05-14T01:04:55;3.77;;;3.57;;
545;SDS011;259;53.304;9.816;2023-05-14T01:09:56;3.37;;;3.17;;
545;SDS011;259;53.304;9.816;2023-05-14T01:15:30;3.67;;;3.47;;
545;SDS011;259;53.304;9.816;2023-05-14T01:18:02;3.53;;;3.33;;
545;SDS011;259;53.304;9.816;2023-05-14T01:20:32;3.83;;;3.63;;
545;SDS011;259;53.304;9.816;2023-05-14T01:22:58;3.60;;;3.40;;
545;SDS011;259;53.304;9.816;2023-05-14T01:25:24;3.37;;;3.17;;
545;SDS011;259;53.304;9.816;2023-05-14T01:30:35;3.20;;;3.00;;
545;SDS011;259;53.304;9.816;2023-05-14T01:33:06;3.87;;;3.57;;
545;SDS011;259;53.304;9.816;2023-05-14T01:35:37;3.93;;;3.73;;
545;SDS011;259;53.304;9.816;2023-05-14T01:38:05;3.70;;;3.50;;
545;SDS011;259;53.304;9.816;2023-05-14T01:40:34;4.10;;;3.90;;
545;SDS011;259;53.304;9.816;2023-05-14T01:43:02;3.80;;;3.50;;
545;SDS011;259;53.304;9.816;2023-05-14T01:45:28;2.97;;;2.87;;
545;SDS011;259;53.304;9.816;2023-05-14T01:47:54;3.60;;;3.40;;
545;SDS011;259;53.304;9.816;2023-05-14T01:50:21;4.00;;;3.77;;
545;SDS011;259;53.304;9.816;2023-05-14T01:52:47;3.37;;;3.17;;
545;SDS011;259;53.304;9.816;2023-05-14T01:55:13;3.80;;;3.60;;
545;SDS011;259;53.304;9.816;2023-05-14T01:57:40;3.27;;;3.07;;
545;SDS011;259;53.304;9.816;2023-05-14T02:00:05;2.80;;;2.70;;
545;SDS011;259;53.304;9.816;2023-05-14T02:02:32;3.33;;;3.13;;
545;SDS011;259;53.304;9.816;2023-05-14T02:04:57;3.60;;;3.40;;
545;SDS011;259;53.304;9.816;2023-05-14T02:07:23;3.60;;;3.40;;
545;SDS011;259;53.304;9.816;2023-05-14T02:09:49;4.20;;;4.00;;
545;SDS011;259;53.304;9.816;2023-05-14T02:12:14;3.27;;;3.07;;
545;SDS011;259;53.304;9.816;2023-05-14T02:14:40;3.87;;;3.67;;
545;SDS011;259;53.304;9.816;2023-05-14T02:17:06;3.77;;;3.47;;
545;SDS011;259;53.304;9.816;2023-05-14T02:19:32;3.27;;;3.07;;
545;SDS011;259;53.304;9.816;2023-05-14T02:21:58;3.80;;;3.60;;
545;SDS011;259;53.304;9.816;2023-05-14T02:24:25;3.50;;;3.30;;
545;SDS011;259;53.304;9.816;2023-05-14T02:26:51;3.60;;;3.40;;
545;SDS011;259;53.304;9.816;2023-05-14T02:29:16;3.33;;;3.13;;
545;SDS011;259;53.304;9.816;2023-05-14T02:31:42;3.53;;;3.33;;
545;SDS011;259;53.304;9.816;2023-05-14T02:34:08;3.53;;;3.33;;
545;SDS011;259;53.304;9.816;2023-05-14T02:36:34;3.30;;;3.20;;
545;SDS011;259;53.304;9.816;2023-05-14T02:39:00;3.60;;;3.40;;
545;SDS011;259;53.304;9.816;2023-05-14T02:41:25;2.90;;;2.80;;
545;SDS011;259;53.304;9.816;2023-05-14T02:43:52;3.60;;;3.40;;
545;SDS011;259;53.304;9.816;2023-05-14T02:46:18;3.80;;;3.60;;
545;SDS011;259;53.304;9.816;2023-05-14T02:48:43;2.67;;;2.57;;
545;SDS011;259;53.304;9.816;2023-05-14T02:51:09;3.40;;;3.20;;
545;SDS011;259;53.304;9.816;2023-05-14T02:53:36;3.40;;;3.20;;
545;SDS011;259;53.304;9.816;2023-05-14T02:56:02;3.70;;;3.50;;
545;SDS011;259;53.304;9.816;2023-05-14T02:58:28;3.53;;;3.33;;
545;SDS011;259;53.304;9.816;2023-05-14T03:00:54;3.47;;;3.27;;
545;SDS011;259;53.304;9.816;2023-05-14T03:03:20;3.47;;;3.27;;
545;SDS011;259;53.304;9.816;2023-05-14T03:05:46;3.40;;;3.20;;
545;SDS011;259;53.304;9.816;2023-05-14T03:08:11;3.40;;;3.20;;
545;SDS011;259;53.304;9.816;2023-05-14T03:10:37;3.80;;;3.60;;
545;SDS011;259;53.304;9.816;2023-05-14T03:13:03;3.77;;;3.57;;
545;SDS011;259;53.304;9.816;2023-05-14T03:15:29;3.60;;;3.40;;
545;SDS011;259;53.304;9.816;2023-05-14T03:17:54;3.40;;;3.20;;
545;SDS011;259;53.304;9.816;2023-05-14T03:20:22;3.20;;;3.00;;
545;SDS011;259;53.304;9.816;2023-05-14T03:22:49;3.47;;;3.30;;
545;SDS011;259;53.304;9.816;2023-05-14T03:25:15;3.10;;;2.90;;
545;SDS011;259;53.304;9.816;2023-05-14T03:27:41;3.70;;;3.50;;
545;SDS011;259;53.304;9.816;2023-05-14T03:30:07;3.17;;;3.00;;
545;SDS011;259;53.304;9.816;2023-05-14T03:32:33;3.77;;;3.57;;
545;SDS011;259;53.304;9.816;2023-05-14T03:34:59;3.10;;;3.00;;
545;SDS011;259;53.304;9.816;2023-05-14T03:37:24;2.90;;;2.80;;
545;SDS011;259;53.304;9.816;2023-05-14T03:39:50;3.50;;;3.23;;
545;SDS011;259;53.304;9.816;2023-05-14T03:42:16;2.97;;;2.87;;
545;SDS011;259;53.304;9.816;2023-05-14T03:44:41;3.50;;;3.30;;
545;SDS011;259;53.304;9.816;2023-05-14T03:47:07;3.50;;;3.30;;
545;SDS011;259;53.304;9.816;2023-05-14T03:49:33;3.47;;;3.27;;
545;SDS011;259;53.304;9.816;2023-05-14T03:51:59;3.40;;;3.20;;
545;SDS011;259;53.304;9.816;2023-05-14T03:54:25;3.17;;;3.00;;
545;SDS011;259;53.304;9.816;2023-05-14T03:56:50;3.30;;;3.10;;
545;SDS011;259;53.304;9.816;2023-05-14T03:59:16;3.77;;;3.57;;
545;SDS011;259;53.304;9.816;2023-05-14T04:01:42;3.80;;;3.60;;
545;SDS011;259;53.304;9.816;2023-05-14T04:04:08;3.63;;;3.43;;
545;SDS011;259;53.304;9.816;2023-05-14T04:06:34;3.90;;;3.70;;
545;SDS011;259;53.304;9.816;2023-05-14T04:09:00;3.50;;;3.23;;
545;SDS011;259;53.304;9.816;2023-05-14T04:11:26;3.57;;;3.37;;
545;SDS011;259;53.304;9.816;2023-05-14T04:13:52;3.17;;;2.97;;
545;SDS011;259;53.304;9.816;2023-05-14T04:16:17;3.70;;;3.50;;
545;SDS011;259;53.304;9.816;2023-05-14T04:18:43;3.80;;;3.50;;
545;SDS011;259;53.304;9.816;2023-05-14T04:21:09;3.27;;;3.17;;
545;SDS011;259;53.304;9.816;2023-05-14T04:23:34;3.33;;;3.13;;
545;SDS011;259;53.304;9.816;2023-05-14T04:26:00;3.30;;;3.10;;
545;SDS011;259;53.304;9.816;2023-05-14T04:28:26;3.43;;;3.23;;
545;SDS011;259;53.304;9.816;2023-05-14T04:30:51;2.80;;;2.70;;
545;SDS011;259;53.304;9.816;2023-05-14T04:33:17;2.93;;;2.83;;
545;SDS011;259;53.304;9.816;2023-05-14T04:35:43;3.60;;;3.40;;
545;SDS011;259;53.304;9.816;2023-05-14T04:38:09;3.47;;;3.27;;
545;SDS011;259;53.304;9.816;2023-05-14T04:40:35;3.03;;;2.90;;
545;SDS011;259;53.304;9.816;2023-05-14T04:43:01;3.23;;;3.03;;
545;SDS011;259;53.304;9.816;2023-05-14T04:45:27;3.13;;;2.93;;
545;SDS011;259;53.304;9.816;2023-05-14T04:47:52;3.00;;;2.90;;
545;SDS011;259;53.304;9.816;2023-05-14T04:50:18;3.70;;;3.50;;
545;SDS011;259;53.304;9.816;2023-05-14T04:52:44;3.60;;;3.40;;
545;SDS011;259;53.304;9.816;2023-05-14T04:55:10;3.40;;;3.20;;
545;SDS011;259;53.304;9.816;2023-05-14T04:57:35;3.33;;;3.13;;
545;SDS011;259;53.304;9.816;2023-05-14T05:00:01;3.90;;;3.70;;
545;SDS011;259;53.304;9.816;2023-05-14T05:02:30;2.93;;;2.73;;
545;SDS011;259;53.304;9.816;2023-05-14T05:04:56;3.17;;;2.97;;
545;SDS011;259;53.304;9.816;2023-05-14T05:07:21;3.57;;;3.37;;
545;SDS011;259;53.304;9.816;2023-05-14T05:09:47;3.80;;;3.60;;
545;SDS011;259;53.304;9.816;2023-05-14T05:12:12;3.23;;;3.03;;
545;SDS011;259;53.304;9.816;2023-05-14T05:14:38;3.63;;;3.43;;
545;SDS011;259;53.304;9.816;2023-05-14T05:17:04;3.27;;;3.03;;
545;SDS011;259;53.304;9.816;2023-05-14T05:19:30;7.77;;;3.93;;
545;SDS011;259;53.304;9.816;2023-05-14T05:21:55;4.20;;;3.80;;
545;SDS011;259;53.304;9.816;2023-05-14T05:24:21;3.70;;;3.40;;
545;SDS011;259;53.304;9.816;2023-05-14T05:26:47;13.87;;;5.60;;
545;SDS011;259;53.304;9.816;2023-05-14T05:29:14;4.87;;;4.37;;
545;SDS011;259;53.304;9.816;2023-05-14T05:31:40;4.80;;;4.30;;
545;SDS011;259;53.304;9.816;2023-05-14T05:34:05;3.97;;;3.43;;
545;SDS011;259;53.304;9.816;2023-05-14T05:36:31;7.40;;;3.93;;
545;SDS011;259;53.304;9.816;2023-05-14T05:38:57;4.93;;;3.87;;
545;SDS011;259;53.304;9.816;2023-05-14T05:41:23;7.73;;;4.17;;
545;SDS011;259;53.304;9.816;2023-05-14T05:43:49;5.40;;;3.90;;
545;SDS011;259;53.304;9.816;2023-05-14T05:46:14;5.63;;;4.00;;
545;SDS011;259;53.304;9.816;2023-05-14T05:48:40;6.70;;;4.30;;
545;SDS011;259;53.304;9.816;2023-05-14T05:51:06;4.40;;;4.00;;
545;SDS011;259;53.304;9.816;2023-05-14T05:53:31;4.17;;;3.87;;
545;SDS011;259;53.304;9.816;2023-05-14T05:55:57;3.63;;;3.33;;
545;SDS011;259;53.304;9.816;2023-05-14T05:58:23;3.63;;;3.33;;
545;SDS011;259;53.304;9.816;2023-05-14T06:00:48;4.17;;;3.70;;
545;SDS011;259;53.304;9.816;2023-05-14T06:03:14;5.80;;;3.30;;
545;SDS011;259;53.304;9.816;2023-05-14T06:05:40;3.53;;;3.33;;
545;SDS011;259;53.304;9.816;2023-05-14T06:08:06;3.90;;;3.60;;
545;SDS011;259;53.304;9.816;2023-05-14T06:10:32;4.03;;;3.67;;
545;SDS011;259;53.304;9.816;2023-05-14T06:12:58;4.60;;;4.20;;
545;SDS011;259;53.304;9.816;2023-05-14T06:15:24;3.93;;;3.63;;
545;SDS011;259;53.304;9.816;2023-05-14T06:17:49;3.93;;;3.63;;
545;SDS011;259;53.304;9.816;2023-05-14T06:20:15;3.60;;;3.40;;
545;SDS011;259;53.304;9.816;2023-05-14T06:22:41;4.30;;;3.90;;
545;SDS011;259;53.304;9.816;2023-05-14T06:25:07;4.10;;;3.90;;
545;SDS011;259;53.304;9.816;2023-05-14T06:27:33;4.60;;;3.97;;
545;SDS011;259;53.304;9.816;2023-05-14T06:29:59;3.80;;;3.60;;
545;SDS011;259;53.304;9.816;2023-05-14T06:32:25;3.73;;;3.10;;
545;SDS011;259;53.304;9.816;2023-05-14T06:34:51;4.27;;;3.87;;
545;SDS011;259;53.304;9.816;2023-05-14T06:37:16;3.83;;;3.53;;
545;SDS011;259;53.304;9.816;2023-05-14T06:39:42;5.10;;;3.70;;
545;SDS011;259;53.304;9.816;2023-05-14T06:42:13;4.43;;;4.13;;
545;SDS011;259;53.304;9.816;2023-05-14T06:44:40;3.93;;;3.70;;
545;SDS011;259;53.304;9.816;2023-05-14T06:47:06;6.10;;;3.47;;
545;SDS011;259;53.304;9.816;2023-05-14T06:49:32;4.00;;;3.80;;
545;SDS011;259;53.304;9.816;2023-05-14T06:51:59;3.80;;;3.60;;
545;SDS011;259;53.304;9.816;2023-05-14T06:54:25;3.60;;;3.40;;
545;SDS011;259;53.304;9.816;2023-05-14T06:56:50;4.60;;;4.30;;
545;SDS011;259;53.304;9.816;2023-05-14T06:59:17;3.50;;;3.30;;
545;SDS011;259;53.304;9.816;2023-05-14T07:01:43;3.97;;;3.57;;
545;SDS011;259;53.304;9.816;2023-05-14T07:04:08;3.50;;;3.30;;
545;SDS011;259;53.304;9.816;2023-05-14T07:06:34;3.67;;;3.37;;
545;SDS011;259;53.304;9.816;2023-05-14T07:09:00;3.53;;;3.30;;
545;SDS011;259;53.304;9.816;2023-05-14T07:11:26;3.77;;;3.50;;
545;SDS011;259;53.304;9.816;2023-05-14T07:13:52;3.80;;;3.60;;
545;SDS011;259;53.304;9.816;2023-05-14T07:16:17;3.30;;;3.20;;
545;SDS011;259;53.304;9.816;2023-05-14T07:18:44;5.37;;;3.50;;
545;SDS011;259;53.304;9.816;2023-05-14T07:21:09;3.07;;;2.97;;
545;SDS011;259;53.304;9.816;2023-05-14T07:23:35;3.40;;;3.10;;
545;SDS011;259;53.304;9.816;2023-05-14T07:26:03;4.10;;;3.83;;
545;SDS011;259;53.304;9.816;2023-05-14T07:28:30;4.30;;;3.90;;
545;SDS011;259;53.304;9.816;2023-05-14T07:30:55;4.13;;;3.50;;
545;SDS011;259;53.304;9.816;2023-05-14T07:33:21;3.70;;;3.50;;
545;SDS011;259;53.304;9.816;2023-05-14T07:35:47;3.70;;;3.50;;
545;SDS011;259;53.304;9.816;2023-05-14T07:38:13;4.47;;;3.50;;
545;SDS011;259;53.304;9.816;2023-05-14T07:40:39;3.40;;;3.20;;
545;SDS011;259;53.304;9.816;2023-05-14T07:43:05;3.27;;;3.03;;
545;SDS011;259;53.304;9.816;2023-05-14T07:45:31;3.60;;;3.30;;
545;SDS011;259;53.304;9.816;2023-05-14T07:47:56;3.50;;;3.30;;
545;SDS011;259;53.304;9.816;2023-05-14T07:50:22;2.90;;;2.70;;
545;SDS011;259;53.304;9.816;2023-05-14T07:52:48;3.20;;;3.07;;
545;SDS011;259;53.304;9.816;2023-05-14T07:55:14;3.40;;;3.20;;
545;SDS011;259;53.304;9.816;2023-05-14T07:57:39;3.10;;;3.00;;
545;SDS011;259;53.304;9.816;2023-05-14T08:00:05;3.10;;;2.90;;
545;SDS011;259;53.304;9.816;2023-05-14T08:02:32;3.17;;;3.00;;
545;SDS011;259;53.304;9.816;2023-05-14T08:04:58;3.00;;;2.80;;
545;SDS011;259;53.304;9.816;2023-05-14T08:07:23;3.33;;;3.13;;
545;SDS011;259;53.304;9.816;2023-05-14T08:09:51;3.40;;;3.17;;
545;SDS011;259;53.304;9.816;2023-05-14T08:12:17;2.73;;;2.63;;
545;SDS011;259;53.304;9.816;2023-05-14T08:14:42;3.47;;;3.13;;
545;SDS011;259;53.304;9.816;2023-05-14T08:17:08;3.60;;;3.40;;
545;SDS011;259;53.304;9.816;2023-05-14T08:19:34;3.07;;;2.90;;
545;SDS011;259;53.304;9.816;2023-05-14T08:21:59;2.97;;;2.83;;
545;SDS011;259;53.304;9.816;2023-05-14T08:24:25;2.97;;;2.77;;
545;SDS011;259;53.304;9.816;2023-05-14T08:26:51;3.10;;;2.93;;
545;SDS011;259;53.304;9.816;2023-05-14T08:29:17;3.37;;;3.23;;
545;SDS011;259;53.304;9.816;2023-05-14T08:31:42;3.60;;;3.30;;
545;SDS011;259;53.304;9.816;2023-05-14T08:34:08;3.17;;;3.07;;
545;SDS011;259;53.304;9.816;2023-05-14T08:36:34;4.10;;;3.80;;
545;SDS011;259;53.304;9.816;2023-05-14T08:38:59;3.30;;;3.10;;
545;SDS011;259;53.304;9.816;2023-05-14T08:41:25;3.60;;;3.40;;
545;SDS011;259;53.304;9.816;2023-05-14T08:46:33;4.43;;;3.43;;
545;SDS011;259;53.304;9.816;2023-05-14T08:49:09;3.43;;;3.23;;
545;SDS011;259;53.304;9.816;2023-05-14T08:52:01;2.73;;;2.63;;
545;SDS011;259;53.304;9.816;2023-05-14T08:54:28;3.77;;;3.57;;
545;SDS011;259;53.304;9.816;2023-05-14T08:56:56;3.50;;;3.30;;
545;SDS011;259;53.304;9.816;2023-05-14T08:59:23;3.10;;;2.90;;
545;SDS011;259;53.304;9.816;2023-05-14T09:01:50;3.23;;;3.13;;
545;SDS011;259;53.304;9.816;2023-05-14T09:04:18;3.13;;;2.93;;
545;SDS011;259;53.304;9.816;2023-05-14T09:06:51;3.17;;;3.07;;
545;SDS011;259;53.304;9.816;2023-05-14T09:09:18;3.10;;;2.90;;
545;SDS011;259;53.304;9.816;2023-05-14T09:11:47;3.27;;;3.07;;
545;SDS011;259;53.304;9.816;2023-05-14T09:14:15;3.30;;;3.10;;
545;SDS011;259;53.304;9.816;2023-05-14T09:16:44;3.23;;;3.10;;
545;SDS011;259;53.304;9.816;2023-05-14T09:19:12;3.40;;;3.20;;
545;SDS011;259;53.304;9.816;2023-05-14T09:21:39;3.03;;;2.93;;
545;SDS011;259;53.304;9.816;2023-05-14T09:24:05;3.00;;;2.70;;
545;SDS011;259;53.304;9.816;2023-05-14T09:26:32;3.00;;;2.90;;
545;SDS011;259;53.304;9.816;2023-05-14T09:28:59;2.93;;;2.73;;
545;SDS011;259;53.304;9.816;2023-05-14T09:31:26;2.87;;;2.77;;
545;SDS011;259;53.304;9.816;2023-05-14T09:33:56;2.90;;;2.73;;
545;SDS011;259;53.304;9.816;2023-05-14T09:36:23;2.90;;;2.70;;
545;SDS011;259;53.304;9.816;2023-05-14T09:38:51;3.10;;;2.97;;
545;SDS011;259;53.304;9.816;2023-05-14T09:41:17;2.90;;;2.80;;
545;SDS011;259;53.304;9.816;2023-05-14T09:43:44;3.13;;;2.93;;
545;SDS011;259;53.304;9.816;2023-05-14T09:46:10;3.03;;;2.83;;
545;SDS011;259;53.304;9.816;2023-05-14T09:48:36;3.00;;;2.80;;
545;SDS011;259;53.304;9.816;2023-05-14T09:51:01;3.03;;;2.90;;
545;SDS011;259;53.304;9.816;2023-05-14T09:53:29;3.00;;;2.80;;
545;SDS011;259;53.304;9.816;2023-05-14T09:55:56;3.13;;;2.93;;
545;SDS011;259;53.304;9.816;2023-05-14T09:58:22;3.73;;;3.50;;
545;SDS011;259;53.304;9.816;2023-05-14T10:00:48;2.97;;;2.87;;
545;SDS011;259;53.304;9.816;2023-05-14T10:03:15;2.53;;;2.43;;
545;SDS011;259;53.304;9.816;2023-05-14T10:05:42;2.47;;;2.37;;
545;SDS011;259;53.304;9.816;2023-05-14T10:08:12;2.33;;;2.23;;
545;SDS011;259;53.304;9.816;2023-05-14T10:10:45;3.07;;;2.97;;
545;SDS011;259;53.304;9.816;2023-05-14T10:13:13;2.80;;;2.60;;
545;SDS011;259;53.304;9.816;2023-05-14T10:18:21;3.20;;;3.00;;
545;SDS011;259;53.304;9.816;2023-05-14T10:20:52;2.70;;;2.60;;
545;SDS011;259;53.304;9.816;2023-05-14T10:23:31;3.00;;;2.80;;
545;SDS011;259;53.304;9.816;2023-05-14T10:25:57;3.23;;;3.03;;
545;SDS011;259;53.304;9.816;2023-05-14T10:28:24;3.50;;;3.20;;
545;SDS011;259;53.304;9.816;2023-05-14T10:30:50;2.90;;;2.80;;
545;SDS011;259;53.304;9.816;2023-05-14T10:33:16;2.73;;;2.63;;
545;SDS011;259;53.304;9.816;2023-05-14T10:38:32;3.33;;;3.13;;
545;SDS011;259;53.304;9.816;2023-05-14T10:41:03;3.10;;;2.90;;
545;SDS011;259;53.304;9.816;2023-05-14T10:43:38;3.23;;;3.03;;
545;SDS011;259;53.304;9.816;2023-05-14T10:46:05;2.73;;;2.63;;
545;SDS011;259;53.304;9.816;2023-05-14T10:48:33;2.57;;;2.47;;
545;SDS011;259;53.304;9.816;2023-05-14T10:51:06;2.80;;;2.70;;
545;SDS011;259;53.304;9.816;2023-05-14T10:56:05;3.30;;;3.10;;
545;SDS011;259;53.304;9.816;2023-05-14T10:58:39;2.63;;;2.53;;
545;SDS011;259;53.304;9.816;2023-05-14T11:01:08;2.47;;;2.37;;
545;SDS011;259;53.304;9.816;2023-05-14T11:03:42;2.90;;;2.80;;
545;SDS011;259;53.304;9.816;2023-05-14T11:06:11;3.03;;;2.83;;
545;SDS011;259;53.304;9.816;2023-05-14T11:08:39;2.63;;;2.37;;
545;SDS011;259;53.304;9.816;2023-05-14T11:11:05;3.00;;;2.83;;
545;SDS011;259;53.304;9.816;2023-05-14T11:13:33;3.10;;;2.90;;
545;SDS011;259;53.304;9.816;2023-05-14T11:15:59;3.13;;;2.93;;
545;SDS011;259;53.304;9.816;2023-05-14T11:18:26;2.60;;;2.50;;
545;SDS011;259;53.304;9.816;2023-05-14T11:20:57;2.93;;;2.83;;
545;SDS011;259;53.304;9.816;2023-05-14T11:23:25;2.63;;;2.53;;
545;SDS011;259;53.304;9.816;2023-05-14T11:25:52;3.20;;;3.00;;
545;SDS011;259;53.304;9.816;2023-05-14T11:28:20;2.73;;;2.63;;
545;SDS011;259;53.304;9.816;2023-05-14T11:30:50;2.63;;;2.53;;
545;SDS011;259;53.304;9.816;2023-05-14T11:33:17;3.27;;;2.97;;
545;SDS011;259;53.304;9.816;2023-05-14T11:35:44;2.60;;;2.50;;
545;SDS011;259;53.304;9.816;2023-05-14T11:38:15;2.73;;;2.53;;
545;SDS011;259;53.304;9.816;2023-05-14T11:40:50;2.73;;;2.53;;
545;SDS011;259;53.304;9.816;2023-05-14T11:43:20;2.90;;;2.70;;
545;SDS011;259;53.304;9.816;2023-05-14T11:45:49;3.03;;;2.83;;
545;SDS011;259;53.304;9.816;2023-05-14T11:48:17;2.57;;;2.30;;
545;SDS011;259;53.304;9.816;2023-05-14T11:50:44;2.57;;;2.47;;
545;SDS011;259;53.304;9.816;2023-05-14T11:53:18;2.80;;;2.70;;
545;SDS011;259;53.304;9.816;2023-05-14T11:55:54;3.10;;;2.80;;
545;SDS011;259;53.304;9.816;2023-05-14T11:58:21;3.40;;;3.20;;
545;SDS011;259;53.304;9.816;2023-05-14T12:00:51;3.17;;;2.97;;
545;SDS011;259;53.304;9.816;2023-05-14T12:03:17;3.23;;;3.03;;
545;SDS011;259;53.304;9.816;2023-05-14T12:05:59;2.40;;;2.30;;
545;SDS011;259;53.304;9.816;2023-05-14T12:08:27;2.40;;;2.20;;
545;SDS011;259;53.304;9.816;2023-05-14T12:10:54;3.23;;;3.03;;
545;SDS011;259;53.304;9.816;2023-05-14T12:13:24;2.37;;;2.27;;
545;SDS011;259;53.304;9.816;2023-05-14T12:15:57;2.70;;;2.60;;
545;SDS011;259;53.304;9.816;2023-05-14T12:18:26;2.50;;;2.40;;
545;SDS011;259;53.304;9.816;2023-05-14T12:20:54;6.00;;;3.07;;
545;SDS011;259;53.304;9.816;2023-05-14T12:23:29;3.10;;;2.90;;
545;SDS011;259;53.304;9.816;2023-05-14T12:26:06;2.30;;;2.20;;
545;SDS011;259;53.304;9.816;2023-05-14T12:28:33;3.40;;;3.00;;
545;SDS011;259;53.304;9.816;2023-05-14T12:30:59;3.63;;;3.43;;
545;SDS011;259;53.304;9.816;2023-05-14T12:33:25;3.53;;;3.20;;
545;SDS011;259;53.304;9.816;2023-05-14T12:35:52;3.27;;;3.00;;
545;SDS011;259;53.304;9.816;2023-05-14T12:38:18;3.03;;;2.83;;
545;SDS011;259;53.304;9.816;2023-05-14T12:40:44;3.10;;;2.60;;
545;SDS011;259;53.304;9.816;2023-05-14T12:43:10;3.90;;;3.60;;
545;SDS011;259;53.304;9.816;2023-05-14T12:45:35;3.70;;;3.40;;
545;SDS011;259;53.304;9.816;2023-05-14T12:48:01;3.70;;;3.50;;
545;SDS011;259;53.304;9.816;2023-05-14T12:50:27;4.63;;;3.40;;
545;SDS011;259;53.304;9.816;2023-05-14T12:52:53;4.00;;;3.60;;
545;SDS011;259;53.304;9.816;2023-05-14T12:55:18;3.70;;;3.40;;
545;SDS011;259;53.304;9.816;2023-05-14T12:57:44;3.37;;;2.73;;
545;SDS011;259;53.304;9.816;2023-05-14T13:00:10;2.97;;;2.77;;
545;SDS011;259;53.304;9.816;2023-05-14T13:02:36;3.60;;;3.40;;
545;SDS011;259;53.304;9.816;2023-05-14T13:05:02;3.70;;;3.50;;
545;SDS011;259;53.304;9.816;2023-05-14T13:07:28;3.30;;;3.10;;
545;SDS011;259;53.304;9.816;2023-05-14T13:09:55;3.30;;;3.10;;
545;SDS011;259;53.304;9.816;2023-05-14T13:12:21;3.07;;;2.97;;
545;SDS011;259;53.304;9.816;2023-05-14T13:14:47;3.53;;;3.30;;
545;SDS011;259;53.304;9.816;2023-05-14T13:17:13;3.37;;;3.10;;
545;SDS011;259;53.304;9.816;2023-05-14T13:19:39;3.97;;;3.60;;
545;SDS011;259;53.304;9.816;2023-05-14T13:22:05;3.20;;;3.00;;
545;SDS011;259;53.304;9.816;2023-05-14T13:24:30;3.53;;;3.23;;
545;SDS011;259;53.304;9.816;2023-05-14T13:26:56;3.10;;;2.90;;
545;SDS011;259;53.304;9.816;2023-05-14T13:29:22;3.60;;;3.30;;
545;SDS011;259;53.304;9.816;2023-05-14T13:31:48;3.53;;;3.33;;
545;SDS011;259;53.304;9.816;2023-05-14T13:34:13;4.13;;;3.83;;
545;SDS011;259;53.304;9.816;2023-05-14T13:36:40;3.87;;;3.60;;
545;SDS011;259;53.304;9.816;2023-05-14T13:39:08;3.40;;;3.20;;
545;SDS011;259;53.304;9.816;2023-05-14T13:41:35;3.43;;;3.23;;
545;SDS011;259;53.304;9.816;2023-05-14T13:44:02;3.33;;;3.10;;
545;SDS011;259;53.304;9.816;2023-05-14T13:46:28;3.20;;;3.00;;
545;SDS011;259;53.304;9.816;2023-05-14T13:48:54;3.30;;;3.10;;
545;SDS011;259;53.304;9.816;2023-05-14T13:51:21;4.70;;;3.30;;
545;SDS011;259;53.304;9.816;2023-05-14T13:53:47;3.63;;;3.33;;
545;SDS011;259;53.304;9.816;2023-05-14T13:56:13;3.47;;;3.27;;
545;SDS011;259;53.304;9.816;2023-05-14T13:58:39;3.87;;;2.97;;
545;SDS011;259;53.304;9.816;2023-05-14T14:01:04;3.33;;;3.13;;
545;SDS011;259;53.304;9.816;2023-05-14T14:03:30;4.00;;;3.40;;
545;SDS011;259;53.304;9.816;2023-05-14T14:05:56;3.43;;;3.23;;
545;SDS011;259;53.304;9.816;2023-05-14T14:08:21;3.57;;;3.27;;
545;SDS011;259;53.304;9.816;2023-05-14T14:10:47;3.20;;;3.00;;
545;SDS011;259;53.304;9.816;2023-05-14T14:13:13;3.40;;;3.20;;
545;SDS011;259;53.304;9.816;2023-05-14T14:15:39;3.73;;;3.27;;
545;SDS011;259;53.304;9.816;2023-05-14T14:18:04;3.70;;;3.20;;
545;SDS011;259;53.304;9.816;2023-05-14T14:20:30;3.40;;;3.20;;
545;SDS011;259;53.304;9.816;2023-05-14T14:22:58;4.47;;;4.17;;
545;SDS011;259;53.304;9.816;2023-05-14T14:25:24;5.53;;;4.20;;
545;SDS011;259;53.304;9.816;2023-05-14T14:27:49;4.37;;;4.10;;
545;SDS011;259;53.304;9.816;2023-05-14T14:30:15;6.63;;;4.70;;
545;SDS011;259;53.304;9.816;2023-05-14T14:32:50;8.70;;;5.27;;
545;SDS011;259;53.304;9.816;2023-05-14T14:35:15;6.30;;;5.70;;
545;SDS011;259;53.304;9.816;2023-05-14T14:37:43;6.10;;;4.90;;
545;SDS011;259;53.304;9.816;2023-05-14T14:40:13;6.77;;;5.27;;
545;SDS011;259;53.304;9.816;2023-05-14T14:42:39;5.63;;;5.20;;
545;SDS011;259;53.304;9.816;2023-05-14T14:45:07;13.67;;;6.03;;
545;SDS011;259;53.304;9.816;2023-05-14T14:47:33;5.47;;;5.07;;
545;SDS011;259;53.304;9.816;2023-05-14T14:49:59;5.60;;;5.20;;
545;SDS011;259;53.304;9.816;2023-05-14T14:52:25;6.10;;;5.60;;
545;SDS011;259;53.304;9.816;2023-05-14T14:54:51;6.23;;;5.63;;
545;SDS011;259;53.304;9.816;2023-05-14T14:57:19;6.10;;;5.70;;
545;SDS011;259;53.304;9.816;2023-05-14T14:59:45;15.17;;;5.60;;
545;SDS011;259;53.304;9.816;2023-05-14T15:02:11;7.73;;;6.13;;
545;SDS011;259;53.304;9.816;2023-05-14T15:04:37;5.40;;;5.10;;
545;SDS011;259;53.304;9.816;2023-05-14T15:07:03;5.80;;;5.40;;
545;SDS011;259;53.304;9.816;2023-05-14T15:09:29;5.37;;;5.07;;
545;SDS011;259;53.304;9.816;2023-05-14T15:11:55;6.20;;;5.60;;
545;SDS011;259;53.304;9.816;2023-05-14T15:14:21;5.67;;;5.27;;
545;SDS011;259;53.304;9.816;2023-05-14T15:16:47;5.77;;;5.27;;
545;SDS011;259;53.304;9.816;2023-05-14T15:19:13;6.00;;;5.60;;
545;SDS011;259;53.304;9.816;2023-05-14T15:21:38;5.60;;;5.07;;
545;SDS011;259;53.304;9.816;2023-05-14T15:24:05;8.90;;;5.50;;
545;SDS011;259;53.304;9.816;2023-05-14T15:26:31;5.63;;;5.33;;
545;SDS011;259;53.304;9.816;2023-05-14T15:28:57;5.70;;;5.30;;
545;SDS011;259;53.304;9.816;2023-05-14T15:31:23;5.40;;;5.00;;
545;SDS011;259;53.304;9.816;2023-05-14T15:33:49;6.03;;;5.53;;
545;SDS011;259;53.304;9.816;2023-05-14T15:36:17;5.77;;;5.27;;
545;SDS011;259;53.304;9.816;2023-05-14T15:38:43;6.20;;;5.80;;
545;SDS011;259;53.304;9.816;2023-05-14T15:41:09;6.30;;;5.80;;
545;SDS011;259;53.304;9.816;2023-05-14T15:43:35;5.27;;;4.87;;
545;SDS011;259;53.304;9.816;2023-05-14T15:46:00;5.90;;;5.40;;
545;SDS011;259;53.304;9.816;2023-05-14T15:48:27;6.43;;;5.80;;
545;SDS011;259;53.304;9.816;2023-05-14T15:50:53;6.10;;;5.60;;
545;SDS011;259;53.304;9.816;2023-05-14T15:53:19;8.40;;;5.30;;
545;SDS011;259;53.304;9.816;2023-05-14T15:55:46;5.60;;;5.10;;
545;SDS011;259;53.304;9.816;2023-05-14T15:58:12;6.20;;;5.70;;
545;SDS011;259;53.304;9.816;2023-05-14T16:00:38;6.87;;;6.30;;